sensor_id;sensor_type;location;lat;lon;timestamp;P1;durP1;ratioP1;P2;durP2;ratioP2
10191;SDS011;17580;50.850;4.504;2023-04-01T00:00:32;2.33;;;1.47;;
10191;SDS011;17580;50.850;4.504;2023-04-01T00:02:59;3.03;;;1.50;;
10191;SDS011;17580;50.850;4.504;2023-04-01T00:05:26;4.40;;;1.90;;
10191;SDS011;17580;50.850;4.504;2023-04-01T00:07:53;3.53;;;2.00;;
10191;SDS011;17580;50.850;4.504;2023-04-01T00:10:20;1.90;;;1.30;;
10191;SDS011;17580;50.850;4.504;2023-04-01T00:12:47;5.03;;;1.80;;
10191;SDS011;17580;50.850;4.504;2023-04-01T00:15:14;4.07;;;1.80;;
10191;SDS011;17580;50.850;4.504;2023-04-01T00:17:42;4.23;;;1.60;;
10191;SDS011;17580;50.850;4.504;2023-04-01T00:20:10;4.77;;;2.00;;
10191;SDS011;17580;50.850;4.504;2023-04-01T00:22:39;4.87;;;1.70;;
10191;SDS011;17580;50.850;4.504;2023-04-01T00:25:06;4.33;;;1.93;;
10191;SDS011;17580;50.850;4.504;2023-04-01T00:27:34;5.00;;;2.10;;
10191;SDS011;17580;50.850;4.504;2023-04-01T00:30:01;3.80;;;1.70;;
10191;SDS011;17580;50.850;4.504;2023-04-01T00:32:27;2.47;;;1.50;;
10191;SDS011;17580;50.850;4.504;2023-04-01T00:34:57;4.37;;;1.90;;
10191;SDS011;17580;50.850;4.504;2023-04-01T00:37:24;4.90;;;1.80;;
10191;SDS011;17580;50.850;4.504;2023-04-01T00:39:52;4.53;;;1.47;;
10191;SDS011;17580;50.850;4.504;2023-04-01T00:42:19;2.60;;;1.40;;
10191;SDS011;17580;50.850;4.504;2023-04-01T00:44:47;3.53;;;1.60;;
10191;SDS011;17580;50.850;4.504;2023-04-01T00:47:16;3.33;;;1.53;;
10191;SDS011;17580;50.850;4.504;2023-04-01T00:49:45;2.80;;;1.43;;
10191;SDS011;17580;50.850;4.504;2023-04-01T00:52:17;2.63;;;1.53;;
10191;SDS011;17580;50.850;4.504;2023-04-01T00:54:49;5.00;;;1.70;;
10191;SDS011;17580;50.850;4.504;2023-04-01T00:57:19;1.93;;;1.47;;
10191;SDS011;17580;50.850;4.504;2023-04-01T00:59:50;4.50;;;2.00;;
10191;SDS011;17580;50.850;4.504;2023-04-01T01:02:20;1.77;;;1.47;;
10191;SDS011;17580;50.850;4.504;2023-04-01T01:04:47;4.50;;;1.50;;
10191;SDS011;17580;50.850;4.504;2023-04-01T01:07:19;4.00;;;1.90;;
10191;SDS011;17580;50.850;4.504;2023-04-01T01:09:52;2.53;;;1.30;;
10191;SDS011;17580;50.850;4.504;2023-04-01T01:12:25;1.47;;;1.30;;
10191;SDS011;17580;50.850;4.504;2023-04-01T01:15:02;0.93;;;0.93;;
10191;SDS011;17580;50.850;4.504;2023-04-01T01:17:44;2.90;;;1.40;;
10191;SDS011;17580;50.850;4.504;2023-04-01T01:20:24;2.47;;;1.33;;
10191;SDS011;17580;50.850;4.504;2023-04-01T01:26:40;2.50;;;1.67;;
10191;SDS011;17580;50.850;4.504;2023-04-01T01:29:41;1.63;;;1.27;;
10191;SDS011;17580;50.850;4.504;2023-04-01T01:35:43;0.97;;;0.87;;
10191;SDS011;17580;50.850;4.504;2023-04-01T01:38:15;1.23;;;0.90;;
10191;SDS011;17580;50.850;4.504;2023-04-01T01:40:45;1.27;;;0.90;;
10191;SDS011;17580;50.850;4.504;2023-04-01T01:43:18;0.93;;;0.93;;
10191;SDS011;17580;50.850;4.504;2023-04-01T01:45:49;0.93;;;0.93;;
10191;SDS011;17580;50.850;4.504;2023-04-01T01:48:20;1.10;;;1.00;;
10191;SDS011;17580;50.850;4.504;2023-04-01T01:50:51;2.83;;;1.20;;
10191;SDS011;17580;50.850;4.504;2023-04-01T01:53:18;1.20;;;1.10;;
10191;SDS011;17580;50.850;4.504;2023-04-01T01:55:46;2.13;;;1.33;;
10191;SDS011;17580;50.850;4.504;2023-04-01T01:58:16;1.77;;;1.50;;
10191;SDS011;17580;50.850;4.504;2023-04-01T02:00:47;3.13;;;1.90;;
10191;SDS011;17580;50.850;4.504;2023-04-01T02:03:17;3.57;;;1.67;;
10191;SDS011;17580;50.850;4.504;2023-04-01T02:05:48;3.40;;;2.40;;
10191;SDS011;17580;50.850;4.504;2023-04-01T02:08:21;2.47;;;1.77;;
10191;SDS011;17580;50.850;4.504;2023-04-01T02:10:53;2.20;;;1.90;;
10191;SDS011;17580;50.850;4.504;2023-04-01T02:13:25;2.40;;;1.90;;
10191;SDS011;17580;50.850;4.504;2023-04-01T02:15:58;4.30;;;2.77;;
10191;SDS011;17580;50.850;4.504;2023-04-01T02:18:29;2.20;;;1.87;;
10191;SDS011;17580;50.850;4.504;2023-04-01T02:21:01;2.47;;;2.30;;
10191;SDS011;17580;50.850;4.504;2023-04-01T02:23:31;2.20;;;1.93;;
10191;SDS011;17580;50.850;4.504;2023-04-01T02:26:01;3.50;;;2.33;;
10191;SDS011;17580;50.850;4.504;2023-04-01T02:28:31;5.33;;;2.73;;
10191;SDS011;17580;50.850;4.504;2023-04-01T02:30:59;2.70;;;2.07;;
10191;SDS011;17580;50.850;4.504;2023-04-01T02:33:27;2.63;;;2.43;;
10191;SDS011;17580;50.850;4.504;2023-04-01T02:35:55;3.23;;;2.83;;
10191;SDS011;17580;50.850;4.504;2023-04-01T02:38:24;3.03;;;2.70;;
10191;SDS011;17580;50.850;4.504;2023-04-01T02:40:56;4.70;;;2.20;;
10191;SDS011;17580;50.850;4.504;2023-04-01T02:43:25;4.17;;;2.03;;
10191;SDS011;17580;50.850;4.504;2023-04-01T02:45:52;3.30;;;2.33;;
10191;SDS011;17580;50.850;4.504;2023-04-01T02:48:19;6.43;;;2.57;;
10191;SDS011;17580;50.850;4.504;2023-04-01T02:50:46;3.60;;;2.13;;
10191;SDS011;17580;50.850;4.504;2023-04-01T02:53:13;7.63;;;3.03;;
10191;SDS011;17580;50.850;4.504;2023-04-01T02:55:42;5.53;;;2.70;;
10191;SDS011;17580;50.850;4.504;2023-04-01T02:58:09;6.17;;;2.80;;
10191;SDS011;17580;50.850;4.504;2023-04-01T03:00:36;5.43;;;1.93;;
10191;SDS011;17580;50.850;4.504;2023-04-01T03:03:04;6.33;;;2.47;;
10191;SDS011;17580;50.850;4.504;2023-04-01T03:05:31;4.90;;;2.47;;
10191;SDS011;17580;50.850;4.504;2023-04-01T03:07:58;2.27;;;2.03;;
10191;SDS011;17580;50.850;4.504;2023-04-01T03:10:25;5.30;;;2.53;;
10191;SDS011;17580;50.850;4.504;2023-04-01T03:12:53;4.47;;;2.10;;
10191;SDS011;17580;50.850;4.504;2023-04-01T03:15:20;2.40;;;2.00;;
10191;SDS011;17580;50.850;4.504;2023-04-01T03:17:47;3.50;;;2.23;;
10191;SDS011;17580;50.850;4.504;2023-04-01T03:20:14;3.60;;;2.30;;
10191;SDS011;17580;50.850;4.504;2023-04-01T03:22:42;2.50;;;1.93;;
10191;SDS011;17580;50.850;4.504;2023-04-01T03:25:09;4.13;;;2.13;;
10191;SDS011;17580;50.850;4.504;2023-04-01T03:27:36;3.33;;;1.90;;
10191;SDS011;17580;50.850;4.504;2023-04-01T03:30:06;2.57;;;2.20;;
10191;SDS011;17580;50.850;4.504;2023-04-01T03:32:34;4.37;;;2.33;;
10191;SDS011;17580;50.850;4.504;2023-04-01T03:35:01;2.77;;;2.57;;
10191;SDS011;17580;50.850;4.504;2023-04-01T03:37:28;5.30;;;2.90;;
10191;SDS011;17580;50.850;4.504;2023-04-01T03:39:55;3.13;;;2.83;;
10191;SDS011;17580;50.850;4.504;2023-04-01T03:42:22;4.93;;;2.90;;
10191;SDS011;17580;50.850;4.504;2023-04-01T03:44:49;4.80;;;3.17;;
10191;SDS011;17580;50.850;4.504;2023-04-01T03:47:17;4.93;;;3.73;;
10191;SDS011;17580;50.850;4.504;2023-04-01T03:49:44;4.60;;;3.90;;
10191;SDS011;17580;50.850;4.504;2023-04-01T03:52:11;7.57;;;4.10;;
10191;SDS011;17580;50.850;4.504;2023-04-01T03:54:38;7.83;;;4.27;;
10191;SDS011;17580;50.850;4.504;2023-04-01T03:57:05;5.77;;;4.33;;
10191;SDS011;17580;50.850;4.504;2023-04-01T03:59:32;7.10;;;4.37;;
10191;SDS011;17580;50.850;4.504;2023-04-01T04:02:00;5.10;;;3.67;;
10191;SDS011;17580;50.850;4.504;2023-04-01T04:04:28;10.03;;;4.83;;
10191;SDS011;17580;50.850;4.504;2023-04-01T04:06:55;8.83;;;4.90;;
10191;SDS011;17580;50.850;4.504;2023-04-01T04:09:22;5.67;;;4.47;;
10191;SDS011;17580;50.850;4.504;2023-04-01T04:11:49;8.57;;;5.03;;
10191;SDS011;17580;50.850;4.504;2023-04-01T04:14:16;11.47;;;4.17;;
10191;SDS011;17580;50.850;4.504;2023-04-01T04:16:43;4.87;;;3.87;;
10191;SDS011;17580;50.850;4.504;2023-04-01T04:19:10;6.20;;;3.90;;
10191;SDS011;17580;50.850;4.504;2023-04-01T04:21:39;7.73;;;4.20;;
10191;SDS011;17580;50.850;4.504;2023-04-01T04:24:06;8.77;;;4.57;;
10191;SDS011;17580;50.850;4.504;2023-04-01T04:26:33;6.40;;;3.53;;
10191;SDS011;17580;50.850;4.504;2023-04-01T04:29:00;7.23;;;4.90;;
10191;SDS011;17580;50.850;4.504;2023-04-01T04:32:03;8.17;;;3.50;;
10191;SDS011;17580;50.850;4.504;2023-04-01T04:34:31;5.90;;;3.60;;
10191;SDS011;17580;50.850;4.504;2023-04-01T04:36:58;4.27;;;3.07;;
10191;SDS011;17580;50.850;4.504;2023-04-01T04:39:25;4.43;;;2.80;;
10191;SDS011;17580;50.850;4.504;2023-04-01T04:41:52;4.27;;;2.73;;
10191;SDS011;17580;50.850;4.504;2023-04-01T04:44:19;3.10;;;2.60;;
10191;SDS011;17580;50.850;4.504;2023-04-01T04:46:46;3.67;;;2.87;;
10191;SDS011;17580;50.850;4.504;2023-04-01T04:49:14;3.03;;;2.13;;
10191;SDS011;17580;50.850;4.504;2023-04-01T04:51:41;4.40;;;2.70;;
10191;SDS011;17580;50.850;4.504;2023-04-01T04:54:08;2.40;;;2.20;;
10191;SDS011;17580;50.850;4.504;2023-04-01T04:56:35;2.67;;;2.47;;
10191;SDS011;17580;50.850;4.504;2023-04-01T04:59:02;2.10;;;2.00;;
10191;SDS011;17580;50.850;4.504;2023-04-01T05:01:29;2.47;;;2.27;;
10191;SDS011;17580;50.850;4.504;2023-04-01T05:03:58;2.30;;;2.07;;
10191;SDS011;17580;50.850;4.504;2023-04-01T05:06:27;2.57;;;2.37;;
10191;SDS011;17580;50.850;4.504;2023-04-01T05:08:55;2.40;;;2.27;;
10191;SDS011;17580;50.850;4.504;2023-04-01T05:11:22;1.60;;;1.50;;
10191;SDS011;17580;50.850;4.504;2023-04-01T05:13:51;2.00;;;1.80;;
10191;SDS011;17580;50.850;4.504;2023-04-01T05:16:18;1.60;;;1.50;;
10191;SDS011;17580;50.850;4.504;2023-04-01T05:18:46;1.57;;;1.57;;
10191;SDS011;17580;50.850;4.504;2023-04-01T05:21:14;2.07;;;1.80;;
10191;SDS011;17580;50.850;4.504;2023-04-01T05:23:43;2.33;;;1.93;;
10191;SDS011;17580;50.850;4.504;2023-04-01T05:26:11;1.80;;;1.70;;
10191;SDS011;17580;50.850;4.504;2023-04-01T05:28:39;2.70;;;2.23;;
10191;SDS011;17580;50.850;4.504;2023-04-01T05:31:06;2.53;;;2.33;;
10191;SDS011;17580;50.850;4.504;2023-04-01T05:33:34;2.30;;;2.20;;
10191;SDS011;17580;50.850;4.504;2023-04-01T05:36:08;2.53;;;2.20;;
10191;SDS011;17580;50.850;4.504;2023-04-01T05:38:36;2.60;;;2.40;;
10191;SDS011;17580;50.850;4.504;2023-04-01T05:41:05;2.83;;;2.57;;
10191;SDS011;17580;50.850;4.504;2023-04-01T05:43:32;2.97;;;2.77;;
10191;SDS011;17580;50.850;4.504;2023-04-01T05:46:02;2.93;;;2.73;;
10191;SDS011;17580;50.850;4.504;2023-04-01T05:48:29;3.43;;;3.20;;
10191;SDS011;17580;50.850;4.504;2023-04-01T05:50:56;4.30;;;3.13;;
10191;SDS011;17580;50.850;4.504;2023-04-01T05:53:23;3.20;;;2.80;;
10191;SDS011;17580;50.850;4.504;2023-04-01T05:55:50;3.53;;;2.90;;
10191;SDS011;17580;50.850;4.504;2023-04-01T05:58:18;4.00;;;3.40;;
10191;SDS011;17580;50.850;4.504;2023-04-01T06:00:45;5.77;;;3.60;;
10191;SDS011;17580;50.850;4.504;2023-04-01T06:03:12;3.80;;;3.40;;
10191;SDS011;17580;50.850;4.504;2023-04-01T06:05:40;4.80;;;4.20;;
10191;SDS011;17580;50.850;4.504;2023-04-01T06:08:10;3.47;;;3.23;;
10191;SDS011;17580;50.850;4.504;2023-04-01T06:10:40;4.33;;;3.60;;
10191;SDS011;17580;50.850;4.504;2023-04-01T06:13:17;3.83;;;3.40;;
10191;SDS011;17580;50.850;4.504;2023-04-01T06:15:53;6.10;;;4.47;;
10191;SDS011;17580;50.850;4.504;2023-04-01T06:18:35;4.27;;;3.87;;
10191;SDS011;17580;50.850;4.504;2023-04-01T06:24:18;6.83;;;4.73;;
10191;SDS011;17580;50.850;4.504;2023-04-01T06:26:59;6.67;;;3.40;;
10191;SDS011;17580;50.850;4.504;2023-04-01T06:32:26;5.07;;;4.50;;
10191;SDS011;17580;50.850;4.504;2023-04-01T06:35:21;4.70;;;4.30;;
10191;SDS011;17580;50.850;4.504;2023-04-01T06:38:04;5.17;;;3.87;;
10191;SDS011;17580;50.850;4.504;2023-04-01T06:40:55;4.53;;;4.13;;
10191;SDS011;17580;50.850;4.504;2023-04-01T06:43:35;6.10;;;4.00;;
10191;SDS011;17580;50.850;4.504;2023-04-01T06:46:12;6.57;;;4.30;;
10191;SDS011;17580;50.850;4.504;2023-04-01T06:48:47;5.03;;;3.87;;
10191;SDS011;17580;50.850;4.504;2023-04-01T06:51:27;7.47;;;3.93;;
10191;SDS011;17580;50.850;4.504;2023-04-01T06:54:02;5.57;;;4.00;;
10191;SDS011;17580;50.850;4.504;2023-04-01T06:56:32;4.87;;;4.00;;
10191;SDS011;17580;50.850;4.504;2023-04-01T06:59:03;4.33;;;4.03;;
10191;SDS011;17580;50.850;4.504;2023-04-01T07:01:38;6.37;;;4.40;;
10191;SDS011;17580;50.850;4.504;2023-04-01T07:04:09;6.70;;;4.20;;
10191;SDS011;17580;50.850;4.504;2023-04-01T07:06:42;4.80;;;3.87;;
10191;SDS011;17580;50.850;4.504;2023-04-01T07:09:14;5.73;;;4.17;;
10191;SDS011;17580;50.850;4.504;2023-04-01T07:11:44;5.00;;;4.33;;
10191;SDS011;17580;50.850;4.504;2023-04-01T07:14:13;7.30;;;4.00;;
10191;SDS011;17580;50.850;4.504;2023-04-01T07:16:48;5.83;;;4.03;;
10191;SDS011;17580;50.850;4.504;2023-04-01T07:19:22;5.63;;;3.93;;
10191;SDS011;17580;50.850;4.504;2023-04-01T07:21:56;3.87;;;3.50;;
10191;SDS011;17580;50.850;4.504;2023-04-01T07:24:29;4.17;;;3.87;;
10191;SDS011;17580;50.850;4.504;2023-04-01T07:27:00;3.30;;;3.10;;
10191;SDS011;17580;50.850;4.504;2023-04-01T07:29:27;3.20;;;2.87;;
10191;SDS011;17580;50.850;4.504;2023-04-01T07:32:02;2.90;;;2.70;;
10191;SDS011;17580;50.850;4.504;2023-04-01T07:34:44;4.60;;;2.70;;
10191;SDS011;17580;50.850;4.504;2023-04-01T07:37:47;2.23;;;1.73;;
10191;SDS011;17580;50.850;4.504;2023-04-01T07:40:28;2.53;;;2.10;;
10191;SDS011;17580;50.850;4.504;2023-04-01T07:43:07;1.60;;;1.50;;
10191;SDS011;17580;50.850;4.504;2023-04-01T07:45:45;1.93;;;1.83;;
10191;SDS011;17580;50.850;4.504;2023-04-01T07:48:20;2.00;;;1.90;;
10191;SDS011;17580;50.850;4.504;2023-04-01T07:50:54;1.50;;;1.50;;
10191;SDS011;17580;50.850;4.504;2023-04-01T07:53:26;1.47;;;1.40;;
10191;SDS011;17580;50.850;4.504;2023-04-01T07:56:00;1.50;;;1.50;;
10191;SDS011;17580;50.850;4.504;2023-04-01T07:58:34;1.17;;;1.17;;
10191;SDS011;17580;50.850;4.504;2023-04-01T08:01:10;1.20;;;1.20;;
10191;SDS011;17580;50.850;4.504;2023-04-01T08:03:48;1.10;;;1.10;;
10191;SDS011;17580;50.850;4.504;2023-04-01T08:06:27;2.17;;;1.70;;
10191;SDS011;17580;50.850;4.504;2023-04-01T08:09:01;2.10;;;2.00;;
10191;SDS011;17580;50.850;4.504;2023-04-01T08:11:37;1.63;;;1.53;;
10191;SDS011;17580;50.850;4.504;2023-04-01T08:14:15;1.63;;;1.50;;
10191;SDS011;17580;50.850;4.504;2023-04-01T08:16:51;2.73;;;1.50;;
10191;SDS011;17580;50.850;4.504;2023-04-01T08:19:31;1.40;;;1.40;;
10191;SDS011;17580;50.850;4.504;2023-04-01T08:22:10;1.27;;;1.27;;
10191;SDS011;17580;50.850;4.504;2023-04-01T08:24:41;1.13;;;1.10;;
10191;SDS011;17580;50.850;4.504;2023-04-01T08:27:11;1.20;;;1.10;;
10191;SDS011;17580;50.850;4.504;2023-04-01T08:29:45;0.90;;;0.90;;
10191;SDS011;17580;50.850;4.504;2023-04-01T08:32:16;1.17;;;1.17;;
10191;SDS011;17580;50.850;4.504;2023-04-01T08:34:50;0.90;;;0.90;;
10191;SDS011;17580;50.850;4.504;2023-04-01T08:37:28;1.27;;;1.10;;
10191;SDS011;17580;50.850;4.504;2023-04-01T08:39:58;1.00;;;0.90;;
10191;SDS011;17580;50.850;4.504;2023-04-01T08:42:41;1.83;;;1.00;;
10191;SDS011;17580;50.850;4.504;2023-04-01T08:45:35;1.10;;;1.10;;
10191;SDS011;17580;50.850;4.504;2023-04-01T08:48:25;1.00;;;1.00;;
10191;SDS011;17580;50.850;4.504;2023-04-01T08:54:23;1.27;;;1.17;;
10191;SDS011;17580;50.850;4.504;2023-04-01T08:57:10;1.40;;;1.30;;
10191;SDS011;17580;50.850;4.504;2023-04-01T08:59:45;1.10;;;1.10;;
10191;SDS011;17580;50.850;4.504;2023-04-01T09:05:39;2.17;;;1.60;;
10191;SDS011;17580;50.850;4.504;2023-04-01T09:08:18;1.20;;;1.20;;
10191;SDS011;17580;50.850;4.504;2023-04-01T09:11:00;0.80;;;0.80;;
10191;SDS011;17580;50.850;4.504;2023-04-01T09:13:36;1.10;;;1.10;;
10191;SDS011;17580;50.850;4.504;2023-04-01T09:16:23;1.23;;;1.20;;
10191;SDS011;17580;50.850;4.504;2023-04-01T09:19:10;1.10;;;1.10;;
10191;SDS011;17580;50.850;4.504;2023-04-01T09:27:55;0.97;;;0.97;;
10191;SDS011;17580;50.850;4.504;2023-04-01T09:30:33;1.00;;;1.00;;
10191;SDS011;17580;50.850;4.504;2023-04-01T09:36:04;1.97;;;1.33;;
10191;SDS011;17580;50.850;4.504;2023-04-01T09:38:40;1.20;;;1.20;;
10191;SDS011;17580;50.850;4.504;2023-04-01T09:41:25;2.80;;;1.60;;
10191;SDS011;17580;50.850;4.504;2023-04-01T09:44:08;1.87;;;1.70;;
10191;SDS011;17580;50.850;4.504;2023-04-01T09:46:45;1.77;;;1.67;;
10191;SDS011;17580;50.850;4.504;2023-04-01T09:49:34;1.47;;;1.37;;
10191;SDS011;17580;50.850;4.504;2023-04-01T09:52:24;1.57;;;1.47;;
10191;SDS011;17580;50.850;4.504;2023-04-01T09:55:01;1.80;;;1.70;;
10191;SDS011;17580;50.850;4.504;2023-04-01T10:01:14;1.70;;;1.60;;
10191;SDS011;17580;50.850;4.504;2023-04-01T10:07:18;1.83;;;1.63;;
10191;SDS011;17580;50.850;4.504;2023-04-01T10:10:23;3.23;;;1.73;;
10191;SDS011;17580;50.850;4.504;2023-04-01T10:16:03;1.90;;;1.70;;
10191;SDS011;17580;50.850;4.504;2023-04-01T10:25:05;1.67;;;1.57;;
10191;SDS011;17580;50.850;4.504;2023-04-01T10:31:06;2.30;;;2.07;;
10191;SDS011;17580;50.850;4.504;2023-04-01T10:37:00;2.93;;;1.93;;
10191;SDS011;17580;50.850;4.504;2023-04-01T10:42:43;1.40;;;1.30;;
10191;SDS011;17580;50.850;4.504;2023-04-01T10:48:34;1.40;;;1.30;;
10191;SDS011;17580;50.850;4.504;2023-04-01T10:54:47;1.70;;;1.57;;
10191;SDS011;17580;50.850;4.504;2023-04-01T10:57:29;1.10;;;1.10;;
10191;SDS011;17580;50.850;4.504;2023-04-01T11:00:18;0.93;;;0.93;;
10191;SDS011;17580;50.850;4.504;2023-04-01T11:03:30;2.80;;;1.10;;
10191;SDS011;17580;50.850;4.504;2023-04-01T11:06:29;0.80;;;0.80;;
10191;SDS011;17580;50.850;4.504;2023-04-01T11:15:27;0.80;;;0.80;;
10191;SDS011;17580;50.850;4.504;2023-04-01T11:18:30;1.00;;;1.00;;
10191;SDS011;17580;50.850;4.504;2023-04-01T11:24:34;1.10;;;1.10;;
10191;SDS011;17580;50.850;4.504;2023-04-01T11:27:10;1.00;;;1.00;;
10191;SDS011;17580;50.850;4.504;2023-04-01T11:29:53;0.80;;;0.80;;
10191;SDS011;17580;50.850;4.504;2023-04-01T11:32:46;1.00;;;1.00;;
10191;SDS011;17580;50.850;4.504;2023-04-01T11:35:28;0.80;;;0.80;;
10191;SDS011;17580;50.850;4.504;2023-04-01T11:38:17;1.40;;;0.97;;
10191;SDS011;17580;50.850;4.504;2023-04-01T11:40:54;1.10;;;1.10;;
10191;SDS011;17580;50.850;4.504;2023-04-01T11:43:29;1.00;;;1.00;;
10191;SDS011;17580;50.850;4.504;2023-04-01T11:46:05;1.13;;;0.93;;
10191;SDS011;17580;50.850;4.504;2023-04-01T11:48:39;1.00;;;1.00;;
10191;SDS011;17580;50.850;4.504;2023-04-01T11:51:24;1.10;;;0.90;;
10191;SDS011;17580;50.850;4.504;2023-04-01T11:54:11;1.20;;;1.20;;
10191;SDS011;17580;50.850;4.504;2023-04-01T11:57:03;1.67;;;1.20;;
10191;SDS011;17580;50.850;4.504;2023-04-01T11:59:56;2.60;;;1.53;;
10191;SDS011;17580;50.850;4.504;2023-04-01T12:02:42;1.37;;;1.27;;
10191;SDS011;17580;50.850;4.504;2023-04-01T12:05:28;2.67;;;1.80;;
10191;SDS011;17580;50.850;4.504;2023-04-01T12:08:07;1.30;;;1.30;;
10191;SDS011;17580;50.850;4.504;2023-04-01T12:10:44;1.20;;;1.20;;
10191;SDS011;17580;50.850;4.504;2023-04-01T12:13:20;1.30;;;1.30;;
10191;SDS011;17580;50.850;4.504;2023-04-01T12:16:03;1.90;;;1.20;;
10191;SDS011;17580;50.850;4.504;2023-04-01T12:18:57;2.27;;;1.20;;
10191;SDS011;17580;50.850;4.504;2023-04-01T12:21:32;1.10;;;1.10;;
10191;SDS011;17580;50.850;4.504;2023-04-01T12:30:20;9.60;;;2.07;;
10191;SDS011;17580;50.850;4.504;2023-04-01T12:33:25;1.27;;;1.27;;
10191;SDS011;17580;50.850;4.504;2023-04-01T12:36:13;1.70;;;1.57;;
10191;SDS011;17580;50.850;4.504;2023-04-01T12:39:05;2.50;;;2.30;;
10191;SDS011;17580;50.850;4.504;2023-04-01T12:41:48;1.30;;;1.30;;
10191;SDS011;17580;50.850;4.504;2023-04-01T12:53:29;1.60;;;1.50;;
10191;SDS011;17580;50.850;4.504;2023-04-01T12:56:12;1.73;;;1.63;;
10191;SDS011;17580;50.850;4.504;2023-04-01T12:58:54;1.80;;;1.70;;
10191;SDS011;17580;50.850;4.504;2023-04-01T13:01:53;1.20;;;1.20;;
10191;SDS011;17580;50.850;4.504;2023-04-01T13:07:53;1.30;;;1.27;;
10191;SDS011;17580;50.850;4.504;2023-04-01T13:13:24;1.83;;;1.73;;
10191;SDS011;17580;50.850;4.504;2023-04-01T13:16:03;1.27;;;1.27;;
10191;SDS011;17580;50.850;4.504;2023-04-01T13:18:39;2.17;;;1.50;;
10191;SDS011;17580;50.850;4.504;2023-04-01T13:21:18;1.40;;;1.40;;
10191;SDS011;17580;50.850;4.504;2023-04-01T13:23:54;1.50;;;1.40;;
10191;SDS011;17580;50.850;4.504;2023-04-01T13:26:28;1.27;;;1.27;;
10191;SDS011;17580;50.850;4.504;2023-04-01T13:29:04;1.30;;;1.30;;
10191;SDS011;17580;50.850;4.504;2023-04-01T13:31:38;1.57;;;1.47;;
10191;SDS011;17580;50.850;4.504;2023-04-01T13:34:19;2.10;;;1.50;;
10191;SDS011;17580;50.850;4.504;2023-04-01T13:37:09;2.97;;;1.63;;
10191;SDS011;17580;50.850;4.504;2023-04-01T13:42:45;1.20;;;1.20;;
10191;SDS011;17580;50.850;4.504;2023-04-01T13:45:18;1.40;;;1.30;;
10191;SDS011;17580;50.850;4.504;2023-04-01T13:48:10;1.37;;;1.27;;
10191;SDS011;17580;50.850;4.504;2023-04-01T13:51:12;1.30;;;1.30;;
10191;SDS011;17580;50.850;4.504;2023-04-01T13:54:09;1.40;;;1.30;;
10191;SDS011;17580;50.850;4.504;2023-04-01T13:56:57;1.00;;;1.00;;
10191;SDS011;17580;50.850;4.504;2023-04-01T13:59:38;1.33;;;1.00;;
10191;SDS011;17580;50.850;4.504;2023-04-01T14:02:37;1.10;;;1.00;;
10191;SDS011;17580;50.850;4.504;2023-04-01T14:05:26;1.23;;;1.23;;
10191;SDS011;17580;50.850;4.504;2023-04-01T14:08:05;1.10;;;1.00;;
10191;SDS011;17580;50.850;4.504;2023-04-01T14:10:40;1.27;;;1.17;;
10191;SDS011;17580;50.850;4.504;2023-04-01T14:13:12;1.27;;;1.10;;
10191;SDS011;17580;50.850;4.504;2023-04-01T14:15:56;1.10;;;1.10;;
10191;SDS011;17580;50.850;4.504;2023-04-01T14:18:57;1.40;;;1.30;;
10191;SDS011;17580;50.850;4.504;2023-04-01T14:21:35;0.90;;;0.90;;
10191;SDS011;17580;50.850;4.504;2023-04-01T14:24:17;0.90;;;0.90;;
10191;SDS011;17580;50.850;4.504;2023-04-01T14:30:16;1.00;;;1.00;;
10191;SDS011;17580;50.850;4.504;2023-04-01T14:32:57;1.27;;;1.27;;
10191;SDS011;17580;50.850;4.504;2023-04-01T14:35:37;2.23;;;1.10;;
10191;SDS011;17580;50.850;4.504;2023-04-01T14:38:21;1.00;;;1.00;;
10191;SDS011;17580;50.850;4.504;2023-04-01T14:40:56;1.00;;;1.00;;
10191;SDS011;17580;50.850;4.504;2023-04-01T14:43:33;1.37;;;1.27;;
10191;SDS011;17580;50.850;4.504;2023-04-01T14:46:50;1.10;;;1.10;;
10191;SDS011;17580;50.850;4.504;2023-04-01T14:49:40;1.20;;;1.20;;
10191;SDS011;17580;50.850;4.504;2023-04-01T14:52:11;1.23;;;1.13;;
10191;SDS011;17580;50.850;4.504;2023-04-01T14:54:43;1.27;;;1.17;;
10191;SDS011;17580;50.850;4.504;2023-04-01T14:57:13;1.37;;;1.13;;
10191;SDS011;17580;50.850;4.504;2023-04-01T14:59:46;0.93;;;0.93;;
10191;SDS011;17580;50.850;4.504;2023-04-01T15:02:26;0.90;;;0.90;;
10191;SDS011;17580;50.850;4.504;2023-04-01T15:05:05;1.40;;;1.40;;
10191;SDS011;17580;50.850;4.504;2023-04-01T15:10:48;0.90;;;0.90;;
10191;SDS011;17580;50.850;4.504;2023-04-01T15:13:37;0.90;;;0.90;;
10191;SDS011;17580;50.850;4.504;2023-04-01T15:16:20;0.90;;;0.90;;
10191;SDS011;17580;50.850;4.504;2023-04-01T15:18:56;1.20;;;1.10;;
10191;SDS011;17580;50.850;4.504;2023-04-01T15:21:44;1.03;;;1.03;;
10191;SDS011;17580;50.850;4.504;2023-04-01T15:24:23;1.00;;;1.00;;
10191;SDS011;17580;50.850;4.504;2023-04-01T15:26:56;1.33;;;1.23;;
10191;SDS011;17580;50.850;4.504;2023-04-01T15:29:44;1.10;;;1.10;;
10191;SDS011;17580;50.850;4.504;2023-04-01T15:32:27;1.20;;;1.20;;
10191;SDS011;17580;50.850;4.504;2023-04-01T15:35:09;2.07;;;1.83;;
10191;SDS011;17580;50.850;4.504;2023-04-01T15:37:48;1.53;;;1.23;;
10191;SDS011;17580;50.850;4.504;2023-04-01T15:40:24;1.30;;;1.20;;
10191;SDS011;17580;50.850;4.504;2023-04-01T15:43:00;1.40;;;1.30;;
10191;SDS011;17580;50.850;4.504;2023-04-01T15:45:41;1.37;;;1.30;;
10191;SDS011;17580;50.850;4.504;2023-04-01T15:48:20;1.13;;;1.10;;
10191;SDS011;17580;50.850;4.504;2023-04-01T15:51:02;1.00;;;1.00;;
10191;SDS011;17580;50.850;4.504;2023-04-01T15:56:51;1.10;;;1.10;;
10191;SDS011;17580;50.850;4.504;2023-04-01T15:59:35;1.10;;;1.10;;
10191;SDS011;17580;50.850;4.504;2023-04-01T16:02:21;1.20;;;1.20;;
10191;SDS011;17580;50.850;4.504;2023-04-01T16:04:57;1.10;;;1.10;;
10191;SDS011;17580;50.850;4.504;2023-04-01T16:07:35;1.33;;;1.23;;
10191;SDS011;17580;50.850;4.504;2023-04-01T16:10:19;1.80;;;1.30;;
10191;SDS011;17580;50.850;4.504;2023-04-01T16:13:02;1.07;;;1.07;;
10191;SDS011;17580;50.850;4.504;2023-04-01T16:15:42;1.20;;;1.20;;
10191;SDS011;17580;50.850;4.504;2023-04-01T16:18:24;2.33;;;1.60;;
10191;SDS011;17580;50.850;4.504;2023-04-01T16:21:00;1.20;;;1.20;;
10191;SDS011;17580;50.850;4.504;2023-04-01T16:23:30;1.27;;;1.23;;
10191;SDS011;17580;50.850;4.504;2023-04-01T16:26:05;1.27;;;1.27;;
10191;SDS011;17580;50.850;4.504;2023-04-01T16:28:38;1.67;;;1.57;;
10191;SDS011;17580;50.850;4.504;2023-04-01T16:31:12;1.87;;;1.20;;
10191;SDS011;17580;50.850;4.504;2023-04-01T16:33:45;1.10;;;1.10;;
10191;SDS011;17580;50.850;4.504;2023-04-01T16:36:20;1.30;;;1.20;;
10191;SDS011;17580;50.850;4.504;2023-04-01T16:39:06;1.80;;;1.70;;
10191;SDS011;17580;50.850;4.504;2023-04-01T16:41:46;2.90;;;1.77;;
10191;SDS011;17580;50.850;4.504;2023-04-01T16:44:19;1.33;;;1.33;;
10191;SDS011;17580;50.850;4.504;2023-04-01T16:46:49;1.27;;;1.17;;
10191;SDS011;17580;50.850;4.504;2023-04-01T16:49:25;1.63;;;1.33;;
10191;SDS011;17580;50.850;4.504;2023-04-01T16:52:03;2.93;;;2.27;;
10191;SDS011;17580;50.850;4.504;2023-04-01T16:54:42;1.87;;;1.50;;
10191;SDS011;17580;50.850;4.504;2023-04-01T16:57:16;1.00;;;1.00;;
10191;SDS011;17580;50.850;4.504;2023-04-01T16:59:52;2.43;;;1.97;;
10191;SDS011;17580;50.850;4.504;2023-04-01T17:02:24;1.40;;;1.30;;
10191;SDS011;17580;50.850;4.504;2023-04-01T17:04:57;1.90;;;1.20;;
10191;SDS011;17580;50.850;4.504;2023-04-01T17:07:30;1.37;;;1.37;;
10191;SDS011;17580;50.850;4.504;2023-04-01T17:10:22;1.33;;;1.20;;
10191;SDS011;17580;50.850;4.504;2023-04-01T17:13:06;2.83;;;1.70;;
10191;SDS011;17580;50.850;4.504;2023-04-01T17:16:19;1.40;;;1.30;;
10191;SDS011;17580;50.850;4.504;2023-04-01T17:18:59;1.57;;;1.50;;
10191;SDS011;17580;50.850;4.504;2023-04-01T17:21:37;3.27;;;2.23;;
10191;SDS011;17580;50.850;4.504;2023-04-01T17:24:18;1.43;;;1.40;;